createdAt,value
2023-01-05T00:01:54.529Z,82.77
2023-01-05T00:04:23.953Z,81.72
2023-01-05T00:06:53.618Z,81.24
2023-01-05T00:09:22.424Z,81.00
2023-01-05T00:12:17.112Z,80.41
2023-01-05T00:15:04.698Z,79.99
2023-01-05T00:17:51.178Z,79.59
2023-01-05T00:20:40.156Z,79.20
2023-01-05T00:28:12.676Z,78.33
2023-01-05T00:30:42.952Z,79.40
2023-01-05T00:33:11.870Z,77.79
2023-01-05T00:35:39.810Z,77.98
2023-01-05T00:38:09.716Z,77.05
2023-01-05T00:40:40.646Z,76.98
2023-01-05T00:43:09.365Z,77.31
2023-01-05T00:45:39.572Z,77.42
2023-01-05T00:48:08.448Z,77.76
2023-01-05T00:50:37.230Z,77.86
2023-01-05T00:53:06.069Z,78.31
2023-01-05T00:55:34.839Z,78.26
2023-01-05T00:58:03.784Z,78.36
2023-01-05T01:00:33.336Z,78.39
2023-01-05T01:03:03.500Z,78.94
2023-01-05T01:05:32.217Z,78.76
2023-01-05T01:08:00.869Z,79.37
2023-01-05T01:10:29.603Z,79.80
2023-01-05T01:12:59.085Z,79.51
2023-01-05T01:15:27.761Z,79.20
2023-01-05T01:17:56.411Z,79.23
2023-01-05T01:20:26.595Z,78.75
2023-01-05T01:22:56.732Z,79.09
2023-01-05T01:25:25.716Z,78.24
2023-01-05T01:27:54.442Z,78.38
2023-01-05T01:30:23.278Z,78.57
2023-01-05T01:32:52.120Z,78.13
2023-01-05T01:35:20.834Z,76.97
2023-01-05T01:37:51.675Z,78.07
2023-01-05T01:40:20.584Z,79.23
2023-01-05T01:42:49.523Z,79.15
2023-01-05T01:45:24.047Z,77.98
2023-01-05T01:47:58.991Z,78.90
2023-01-05T01:50:34.632Z,77.54
2023-01-05T01:53:10.313Z,77.21
2023-01-05T01:55:41.518Z,76.80
2023-01-05T01:58:16.592Z,76.51
2023-01-05T02:00:47.676Z,76.32
2023-01-05T02:03:17.011Z,76.07
2023-01-05T02:05:45.839Z,75.72
2023-01-05T02:08:25.326Z,75.39
2023-01-05T02:11:15.051Z,75.46
2023-01-05T02:14:00.718Z,75.21
2023-01-05T02:16:47.950Z,74.74
2023-01-05T02:20:25.620Z,74.92
2023-01-05T02:23:42.570Z,74.12
2023-01-05T02:26:55.431Z,72.84
2023-01-05T02:30:11.487Z,73.51
2023-01-05T02:32:55.402Z,72.68
2023-01-05T02:35:38.981Z,73.03
2023-01-05T02:38:17.704Z,72.26
2023-01-05T02:40:53.059Z,73.40
2023-01-05T02:43:22.735Z,73.19
2023-01-05T02:45:51.777Z,73.34
2023-01-05T02:48:22.394Z,73.30
2023-01-05T02:51:01.308Z,73.05
2023-01-05T02:53:36.749Z,72.48
2023-01-05T02:56:11.159Z,71.35
2023-01-05T02:58:48.419Z,71.90
2023-01-05T03:01:25.023Z,71.78
2023-01-05T03:04:01.855Z,71.64
2023-01-05T03:06:38.815Z,71.07
2023-01-05T03:09:08.686Z,71.39
2023-01-05T03:12:03.966Z,71.02
2023-01-05T03:14:39.885Z,70.51
2023-01-05T03:17:16.051Z,70.47
2023-01-05T03:19:53.274Z,70.18
2023-01-05T03:22:45.153Z,69.62
2023-01-05T03:25:35.853Z,70.26
2023-01-05T03:28:27.668Z,69.98
2023-01-05T03:31:23.462Z,69.29
2023-01-05T03:34:17.467Z,68.64
2023-01-05T03:36:54.606Z,68.55
2023-01-05T03:39:27.562Z,68.90
2023-01-05T03:42:01.041Z,67.70
2023-01-05T03:44:30.330Z,68.33
2023-01-05T03:46:59.921Z,67.83
2023-01-05T03:49:28.642Z,68.60
2023-01-05T03:51:59.063Z,68.28
2023-01-05T03:54:28.089Z,68.28
2023-01-05T03:56:56.824Z,67.48
2023-01-05T03:59:25.672Z,67.91
2023-01-05T04:01:54.577Z,67.47
2023-01-05T04:04:25.023Z,67.27
2023-01-05T04:06:55.448Z,67.35
2023-01-05T04:09:28.065Z,67.78
2023-01-05T04:11:56.732Z,67.41
2023-01-05T04:14:25.529Z,67.01
2023-01-05T04:16:54.819Z,67.64
2023-01-05T04:19:26.132Z,68.03
2023-01-05T04:21:57.237Z,68.01
2023-01-05T04:24:28.549Z,68.35
2023-01-05T04:26:57.223Z,68.80
2023-01-05T04:29:28.294Z,69.42
2023-01-05T04:31:57.767Z,69.40
2023-01-05T04:34:26.531Z,69.12
2023-01-05T04:36:57.611Z,68.78
2023-01-05T04:39:28.218Z,68.97
2023-01-05T04:41:57.904Z,68.91
2023-01-05T04:44:28.587Z,69.11
2023-01-05T04:46:58.717Z,69.54
2023-01-05T04:49:27.541Z,69.79
2023-01-05T04:51:56.551Z,70.06
2023-01-05T04:55:46.161Z,70.11
2023-01-05T04:58:16.522Z,70.17
2023-01-05T05:00:45.507Z,70.24
2023-01-05T05:03:17.369Z,69.96
2023-01-05T05:05:46.347Z,70.30
2023-01-05T05:08:16.923Z,69.75
2023-01-05T05:10:46.810Z,70.54
2023-01-05T05:13:16.985Z,70.04
2023-01-05T05:15:47.248Z,70.06
2023-01-05T05:18:16.944Z,70.83
2023-01-05T05:20:52.132Z,70.71
2023-01-05T05:23:26.283Z,70.70
2023-01-05T05:25:55.511Z,72.22
2023-01-05T05:32:05.372Z,75.07
2023-01-05T05:34:34.052Z,76.55
2023-01-05T05:37:02.876Z,78.21
2023-01-05T05:39:31.843Z,80.42
2023-01-05T05:42:01.121Z,79.52
2023-01-05T05:44:32.232Z,78.91
2023-01-05T05:47:01.664Z,77.45
2023-01-05T05:49:30.377Z,76.59
2023-01-05T05:51:59.264Z,76.58
2023-01-05T05:54:27.875Z,74.92
2023-01-05T05:56:57.056Z,75.08
2023-01-05T05:59:25.786Z,74.51
2023-01-05T06:01:57.048Z,74.54
2023-01-05T06:04:25.891Z,75.13
2023-01-05T06:06:54.604Z,74.54
2023-01-05T06:09:23.221Z,73.84
2023-01-05T06:11:51.886Z,73.30
2023-01-05T06:14:20.584Z,72.79
2023-01-05T06:16:49.325Z,72.58
2023-01-05T06:19:19.396Z,72.29
2023-01-05T06:21:48.116Z,72.27
2023-01-05T06:24:16.736Z,72.56
2023-01-05T06:26:46.021Z,71.81
2023-01-05T06:29:14.799Z,71.52
2023-01-05T06:31:43.606Z,71.62
2023-01-05T06:34:12.476Z,71.91
2023-01-05T06:36:42.555Z,71.20
2023-01-05T06:39:11.386Z,70.99
2023-01-05T06:41:40.134Z,70.91
2023-01-05T06:44:09.646Z,71.14
2023-01-05T06:46:38.441Z,70.87
2023-01-05T06:49:07.044Z,72.25
2023-01-05T06:51:35.722Z,71.36
2023-01-05T06:54:05.915Z,71.37
2023-01-05T06:56:34.562Z,70.92
2023-01-05T06:59:04.541Z,70.68
2023-01-05T07:01:33.787Z,70.31
2023-01-05T07:04:02.509Z,69.97
2023-01-05T07:06:31.367Z,70.38
2023-01-05T07:09:00.023Z,70.75
2023-01-05T07:11:30.315Z,70.61
2023-01-05T07:13:59.034Z,70.15
2023-01-05T07:16:27.979Z,69.28
2023-01-05T07:18:56.773Z,70.03
2023-01-05T07:21:25.475Z,69.76
2023-01-05T07:23:54.113Z,70.06
2023-01-05T07:26:22.786Z,70.00
2023-01-05T07:28:52.897Z,70.42
2023-01-05T07:31:21.514Z,70.47
2023-01-05T07:33:50.179Z,69.98
2023-01-05T07:36:19.041Z,69.98
2023-01-05T07:38:48.925Z,71.82
2023-01-05T07:41:17.547Z,72.91
2023-01-05T07:43:49.468Z,73.41
2023-01-05T07:46:19.707Z,73.33
2023-01-05T07:48:48.337Z,72.37
2023-01-05T07:51:18.154Z,73.74
2023-01-05T07:53:46.791Z,73.91
2023-01-05T07:56:16.140Z,73.74
2023-01-05T07:58:44.839Z,74.56
2023-01-05T08:01:17.737Z,74.75
2023-01-05T08:03:47.990Z,75.12
2023-01-05T08:06:19.680Z,74.49
2023-01-05T08:08:49.195Z,75.27
2023-01-05T08:11:21.164Z,74.87
2023-01-05T08:14:02.944Z,74.34
2023-01-05T08:16:34.682Z,76.44
2023-01-05T08:19:10.829Z,76.48
2023-01-05T08:21:40.056Z,79.02
2023-01-05T08:24:09.388Z,78.53
2023-01-05T08:26:38.340Z,78.48
2023-01-05T08:29:07.141Z,78.81
2023-01-05T08:31:37.817Z,78.84
2023-01-05T08:34:08.065Z,78.63
2023-01-05T08:36:36.739Z,78.86
2023-01-05T08:39:05.595Z,79.22
2023-01-05T08:41:37.859Z,79.99
2023-01-05T08:44:09.491Z,79.32
2023-01-05T08:46:39.161Z,79.92
2023-01-05T08:49:10.633Z,80.26
2023-01-05T08:51:40.450Z,80.53
2023-01-05T08:54:11.529Z,81.74
2023-01-05T08:56:41.176Z,82.12
2023-01-05T08:59:13.713Z,81.58
2023-01-05T09:01:42.528Z,82.60
2023-01-05T09:04:12.599Z,83.06
2023-01-05T09:06:41.651Z,85.38
2023-01-05T09:09:10.520Z,86.01
2023-01-05T09:11:39.219Z,85.64
2023-01-05T09:14:07.886Z,85.75
2023-01-05T09:19:26.899Z,85.72
2023-01-05T09:21:56.112Z,84.61
2023-01-05T09:24:25.056Z,83.56
2023-01-05T09:26:53.751Z,84.30
2023-01-05T09:29:22.602Z,82.68
2023-01-05T09:31:51.264Z,82.42
2023-01-05T09:34:20.026Z,82.71
2023-01-05T09:36:50.214Z,82.11
2023-01-05T09:39:19.089Z,81.49
2023-01-05T09:41:52.963Z,81.71
2023-01-05T09:44:32.898Z,81.67
2023-01-05T09:47:12.884Z,81.42
2023-01-05T09:49:43.113Z,80.41
2023-01-05T09:52:14.986Z,80.90
2023-01-05T09:54:44.385Z,80.35
2023-01-05T09:59:52.572Z,79.93
2023-01-05T10:02:30.996Z,80.18
2023-01-05T10:05:01.158Z,80.52
2023-01-05T10:07:43.141Z,80.88
2023-01-05T10:10:32.118Z,81.01
2023-01-05T10:13:03.265Z,81.78
2023-01-05T10:15:41.381Z,80.90
2023-01-05T10:18:16.902Z,80.85
2023-01-05T10:21:07.921Z,81.34
2023-01-05T10:24:03.298Z,81.74
2023-01-05T10:27:23.045Z,81.61
2023-01-05T10:29:44.485Z,82.59
2023-01-05T10:32:26.187Z,84.62
2023-01-05T10:35:00.494Z,83.89
2023-01-05T10:38:02.099Z,84.37
2023-01-05T10:40:46.910Z,82.98
2023-01-05T10:43:48.706Z,81.75
2023-01-05T10:46:32.559Z,81.42
2023-01-05T10:49:08.503Z,81.94
2023-01-05T10:51:38.096Z,81.85
2023-01-05T10:54:12.276Z,80.77
2023-01-05T10:56:41.099Z,81.71
2023-01-05T10:59:11.930Z,80.92
2023-01-05T11:01:48.280Z,81.92
2023-01-05T11:04:34.948Z,82.75
2023-01-05T11:07:06.796Z,82.80
2023-01-05T11:09:42.436Z,83.64
2023-01-05T11:12:20.417Z,84.70
2023-01-05T11:14:58.439Z,85.10
2023-01-05T11:17:31.126Z,84.64
2023-01-05T11:20:01.457Z,85.30
2023-01-05T11:22:32.749Z,83.27
2023-01-05T11:25:23.657Z,82.66
2023-01-05T11:28:15.911Z,81.02
2023-01-05T11:31:00.311Z,80.43
2023-01-05T11:33:33.812Z,80.14
2023-01-05T11:36:05.868Z,81.55
2023-01-05T11:38:35.848Z,81.27
2023-01-05T11:41:04.820Z,81.30
2023-01-05T11:43:34.615Z,81.23
2023-01-05T11:46:06.570Z,80.79
2023-01-05T11:48:37.709Z,80.91
2023-01-05T11:51:07.884Z,81.64
2023-01-05T11:53:40.513Z,81.40
2023-01-05T11:56:22.836Z,81.17
2023-01-05T11:58:54.662Z,80.68
2023-01-05T12:02:16.217Z,79.99
2023-01-05T12:05:22.070Z,81.10
2023-01-05T12:07:59.675Z,80.13
2023-01-05T12:10:55.723Z,79.50
2023-01-05T12:14:00.169Z,78.90
2023-01-05T12:16:48.061Z,78.25
2023-01-05T12:20:03.398Z,78.44
2023-01-05T12:22:56.851Z,77.85
2023-01-05T12:25:44.317Z,77.94
2023-01-05T12:29:34.477Z,77.88
2023-01-05T12:35:36.681Z,77.85
2023-01-05T12:38:37.941Z,77.70
2023-01-05T12:41:42.920Z,79.09
2023-01-05T12:44:47.233Z,81.94
2023-01-05T12:47:41.527Z,83.01
2023-01-05T12:50:26.493Z,81.42
2023-01-05T12:53:09.561Z,81.72
2023-01-05T12:55:46.981Z,81.26
2023-01-05T12:58:26.800Z,81.75
2023-01-05T13:00:58.711Z,80.96
2023-01-05T13:03:36.884Z,80.48
2023-01-05T13:06:13.531Z,80.44
2023-01-05T13:08:52.376Z,80.70
2023-01-05T13:11:28.659Z,79.79
2023-01-05T13:14:02.266Z,80.16
2023-01-05T13:16:39.223Z,80.11
2023-01-05T13:19:23.254Z,79.93
2023-01-05T13:21:55.755Z,79.89
2023-01-05T13:24:34.027Z,80.51
2023-01-05T13:27:05.109Z,79.76
2023-01-05T13:29:40.597Z,80.36
2023-01-05T13:32:40.125Z,79.61
2023-01-05T13:35:40.951Z,80.22
2023-01-05T13:38:51.802Z,79.61
2023-01-05T13:41:37.464Z,79.89
2023-01-05T13:44:38.879Z,80.19
2023-01-05T13:47:37.489Z,80.29
2023-01-05T13:50:44.826Z,80.08
2023-01-05T13:53:18.521Z,79.60
2023-01-05T13:55:53.217Z,79.88
2023-01-05T13:58:43.550Z,79.53
2023-01-05T14:01:19.042Z,80.28
2023-01-05T14:03:54.910Z,79.64
2023-01-05T14:06:28.572Z,79.14
2023-01-05T14:11:38.069Z,79.06
2023-01-05T14:14:26.407Z,78.28
2023-01-05T14:16:57.603Z,79.02
2023-01-05T14:19:52.505Z,80.37
2023-01-05T14:22:36.712Z,81.05
2023-01-05T14:25:48.778Z,82.96
2023-01-05T14:28:41.223Z,82.90
2023-01-05T14:31:38.806Z,83.30
2023-01-05T14:34:18.806Z,83.24
2023-01-05T14:37:08.228Z,84.66
2023-01-05T14:39:45.596Z,83.57
2023-01-05T14:42:33.634Z,83.32
2023-01-05T14:45:07.079Z,82.52
2023-01-05T14:47:42.065Z,83.28
2023-01-05T14:50:30.264Z,82.77
2023-01-05T14:53:03.855Z,82.80
2023-01-05T14:55:39.403Z,82.81
2023-01-05T14:58:16.073Z,84.39
2023-01-05T15:00:56.364Z,85.69
2023-01-05T15:03:38.034Z,86.63
2023-01-05T15:06:17.072Z,87.21
2023-01-05T15:09:24.840Z,87.36
2023-01-05T15:12:42.298Z,87.44
2023-01-05T15:15:43.508Z,88.03
2023-01-05T15:19:02.489Z,88.29
2023-01-05T15:22:13.260Z,88.59
2023-01-05T15:25:14.979Z,87.78
2023-01-05T15:28:26.126Z,88.58
2023-01-05T15:31:38.999Z,89.71
2023-01-05T15:34:22.896Z,90.10
2023-01-05T15:37:00.221Z,90.07
2023-01-05T15:39:34.832Z,91.87
2023-01-05T15:42:10.263Z,89.01
2023-01-05T15:44:47.470Z,90.01
2023-01-05T15:47:19.115Z,90.19
2023-01-05T15:49:50.622Z,90.35
2023-01-05T15:52:36.733Z,92.28
2023-01-05T15:55:16.632Z,92.36
2023-01-05T15:57:54.906Z,94.26
2023-01-05T16:00:27.967Z,94.62
2023-01-05T16:02:57.124Z,95.76
2023-01-05T16:05:28.708Z,95.73
2023-01-05T16:08:03.627Z,96.40
2023-01-05T16:10:41.898Z,97.21
2023-01-05T16:13:17.298Z,96.76
2023-01-05T16:15:50.162Z,96.70
2023-01-05T16:18:24.736Z,96.16
2023-01-05T16:20:56.877Z,96.62
2023-01-05T16:23:36.048Z,96.12
2023-01-05T16:26:06.322Z,96.27
2023-01-05T16:28:35.163Z,96.54
2023-01-05T16:31:15.888Z,96.69
2023-01-05T16:33:46.096Z,96.88
2023-01-05T16:36:22.026Z,96.94
2023-01-05T16:38:53.444Z,96.69
2023-01-05T16:41:26.300Z,96.85
2023-01-05T16:43:59.173Z,96.37
2023-01-05T16:46:36.332Z,97.46
2023-01-05T16:49:39.120Z,97.84
2023-01-05T16:52:24.357Z,96.95
2023-01-05T16:55:28.050Z,97.31
2023-01-05T16:57:58.367Z,98.20
2023-01-05T17:00:39.952Z,98.35
2023-01-05T17:03:32.764Z,97.83
2023-01-05T17:06:03.294Z,98.18
2023-01-05T17:08:36.089Z,99.31
2023-01-05T17:11:12.761Z,98.33
2023-01-05T17:13:48.529Z,98.66
2023-01-05T17:16:18.434Z,98.16
2023-01-05T17:18:47.811Z,98.39
2023-01-05T17:21:20.034Z,98.10
2023-01-05T17:23:52.060Z,98.78
2023-01-05T17:26:45.398Z,98.63
2023-01-05T17:29:21.486Z,98.17
2023-01-05T17:31:53.876Z,98.53
2023-01-05T17:34:24.144Z,98.67
2023-01-05T17:37:02.033Z,98.42
2023-01-05T17:39:52.113Z,97.92
2023-01-05T17:42:40.315Z,97.72
2023-01-05T17:45:10.857Z,97.88
2023-01-05T17:47:39.707Z,97.25
2023-01-05T17:50:10.303Z,97.11
2023-01-05T17:52:39.066Z,96.87
2023-01-05T17:55:09.323Z,96.75
2023-01-05T17:57:40.451Z,96.83
2023-01-05T18:00:16.921Z,96.31
2023-01-05T18:02:56.675Z,96.47
2023-01-05T18:05:25.963Z,96.32
2023-01-05T18:08:01.721Z,96.76
2023-01-05T18:10:31.461Z,95.72
2023-01-05T18:13:01.651Z,96.48
2023-01-05T18:15:31.162Z,95.32
2023-01-05T18:18:01.055Z,95.53
2023-01-05T18:20:30.883Z,96.10
2023-01-05T18:23:03.973Z,96.44
2023-01-05T18:25:39.902Z,96.42
2023-01-05T18:28:10.844Z,95.20
2023-01-05T18:34:00.916Z,94.12
2023-01-05T18:36:29.789Z,94.12
2023-01-05T18:38:58.596Z,93.38
2023-01-05T18:41:28.940Z,93.51
2023-01-05T18:44:05.603Z,92.73
2023-01-05T18:46:35.508Z,91.91
2023-01-05T18:49:04.590Z,92.60
2023-01-05T18:51:33.661Z,93.13
2023-01-05T18:54:03.002Z,92.94
2023-01-05T18:56:32.166Z,93.13
2023-01-05T18:59:03.124Z,93.37
2023-01-05T19:01:32.433Z,92.98
2023-01-05T19:04:01.385Z,92.53
2023-01-05T19:06:30.569Z,92.62
2023-01-05T19:09:03.099Z,92.86
2023-01-05T19:11:33.331Z,93.21
2023-01-05T19:14:05.585Z,93.79
2023-01-05T19:16:44.217Z,94.04
2023-01-05T19:19:17.240Z,93.36
2023-01-05T19:21:47.128Z,93.41
2023-01-05T19:24:20.614Z,93.08
2023-01-05T19:26:50.619Z,93.08
2023-01-05T19:29:22.008Z,93.08
2023-01-05T19:31:52.486Z,92.58
2023-01-05T19:34:25.022Z,92.11
2023-01-05T19:36:54.753Z,91.27
2023-01-05T19:39:24.092Z,91.00
2023-01-05T19:41:53.248Z,91.64
2023-01-05T19:44:24.375Z,90.21
2023-01-05T19:46:54.701Z,89.94
2023-01-05T19:49:26.915Z,90.58
2023-01-05T19:51:56.514Z,90.89
2023-01-05T19:54:26.472Z,90.35
2023-01-05T19:56:55.939Z,89.46
2023-01-05T19:59:33.464Z,89.66
2023-01-05T20:02:04.916Z,89.99
2023-01-05T20:04:34.535Z,89.88
2023-01-05T20:07:04.446Z,89.19
2023-01-05T20:09:34.205Z,89.27
2023-01-05T20:12:13.712Z,89.12
2023-01-05T20:14:44.721Z,89.33
2023-01-05T20:17:15.374Z,89.22
2023-01-05T20:19:44.157Z,89.18
2023-01-05T20:22:15.224Z,88.74
2023-01-05T20:24:45.519Z,89.13
2023-01-05T20:27:17.139Z,88.84
2023-01-05T20:29:47.439Z,88.77
2023-01-05T20:32:20.397Z,88.95
2023-01-05T20:34:55.244Z,88.85
2023-01-05T20:37:24.709Z,88.30
2023-01-05T20:39:57.382Z,88.47
2023-01-05T20:42:28.105Z,88.46
2023-01-05T20:45:01.148Z,88.10
2023-01-05T20:47:39.489Z,87.82
2023-01-05T20:50:24.583Z,87.79
2023-01-05T20:52:53.454Z,87.87
2023-01-05T20:55:22.723Z,88.08
2023-01-05T20:57:52.366Z,87.59
2023-01-05T21:00:25.202Z,87.69
2023-01-05T21:02:56.052Z,87.16
2023-01-05T21:05:25.653Z,87.48
2023-01-05T21:07:55.148Z,87.65
2023-01-05T21:10:23.907Z,87.47
2023-01-05T21:12:52.729Z,86.94
2023-01-05T21:15:24.608Z,87.16
2023-01-05T21:17:53.245Z,86.47
2023-01-05T21:20:22.084Z,86.99
2023-01-05T21:22:50.845Z,87.23
2023-01-05T21:25:19.761Z,86.85
2023-01-05T21:27:48.353Z,88.34
2023-01-05T21:30:17.258Z,87.80
2023-01-05T21:32:47.538Z,88.27
2023-01-05T21:35:16.400Z,88.54
2023-01-05T21:37:45.045Z,88.43
2023-01-05T21:40:14.033Z,88.69
2023-01-05T21:42:42.954Z,87.98
2023-01-05T21:45:13.863Z,88.22
2023-01-05T21:47:42.544Z,87.43
2023-01-05T21:50:35.211Z,88.41
2023-01-05T21:53:22.359Z,88.47
2023-01-05T21:56:08.754Z,88.57
2023-01-05T21:58:37.615Z,88.58
2023-01-05T22:01:06.595Z,88.34
2023-01-05T22:03:35.469Z,88.95
2023-01-05T22:06:06.261Z,88.93
2023-01-05T22:08:35.202Z,88.79
2023-01-05T22:11:05.120Z,88.57
2023-01-05T22:13:33.906Z,88.57
2023-01-05T22:16:02.674Z,89.05
2023-01-05T22:18:31.706Z,88.84
2023-01-05T22:21:02.944Z,88.88
2023-01-05T22:23:34.575Z,88.71
2023-01-05T22:26:06.689Z,89.51
2023-01-05T22:28:37.786Z,89.72
2023-01-05T22:31:09.693Z,89.47
2023-01-05T22:33:40.837Z,90.08
2023-01-05T22:36:11.440Z,90.22
2023-01-05T22:38:44.782Z,89.78
2023-01-05T22:41:16.059Z,90.42
2023-01-05T22:43:45.286Z,90.71
2023-01-05T22:46:16.778Z,90.65
2023-01-05T22:48:46.883Z,90.79
2023-01-05T22:51:18.282Z,90.92
2023-01-05T22:53:49.386Z,90.94
2023-01-05T22:56:20.433Z,90.83
2023-01-05T22:58:49.903Z,90.69
2023-01-05T23:01:23.664Z,90.79
2023-01-05T23:03:54.135Z,90.62
2023-01-05T23:06:23.765Z,90.75
2023-01-05T23:08:55.565Z,90.84
2023-01-05T23:11:30.551Z,91.34
2023-01-05T23:14:01.770Z,90.87
2023-01-05T23:16:30.954Z,91.64
2023-01-05T23:18:59.628Z,91.33
2023-01-05T23:21:29.295Z,91.45
2023-01-05T23:24:00.073Z,91.49
2023-01-05T23:26:29.579Z,92.52
2023-01-05T23:28:58.869Z,93.58
2023-01-05T23:31:28.323Z,93.82
2023-01-05T23:33:58.497Z,94.44
2023-01-05T23:36:27.270Z,94.88
2023-01-05T23:38:57.219Z,95.84
2023-01-05T23:41:27.339Z,95.13
2023-01-05T23:43:56.143Z,95.02
2023-01-05T23:46:24.944Z,94.99
2023-01-05T23:48:54.156Z,95.66
2023-01-05T23:51:24.585Z,95.29
2023-01-05T23:53:54.867Z,96.28
2023-01-05T23:56:28.591Z,96.59
2023-01-05T23:59:00.794Z,96.35
